sensor_id;sensor_type;location;lat;lon;timestamp;temperature;humidity
8152;DHT22;4117;53.622;9.958;2023-02-11T00:01:05;5.50;18.50
8152;DHT22;4117;53.622;9.958;2023-02-11T00:03:32;5.50;20.80
8152;DHT22;4117;53.622;9.958;2023-02-11T00:06:05;5.50;19.60
8152;DHT22;4117;53.622;9.958;2023-02-11T00:08:33;5.50;20.50
8152;DHT22;4117;53.622;9.958;2023-02-11T00:11:02;5.50;20.30
8152;DHT22;4117;53.622;9.958;2023-02-11T00:13:29;5.50;21.40
8152;DHT22;4117;53.622;9.958;2023-02-11T00:15:56;5.50;20.60
8152;DHT22;4117;53.622;9.958;2023-02-11T00:18:23;5.50;22.30
8152;DHT22;4117;53.622;9.958;2023-02-11T00:20:50;5.50;23.50
8152;DHT22;4117;53.622;9.958;2023-02-11T00:23:17;5.50;24.20
8152;DHT22;4117;53.622;9.958;2023-02-11T00:25:44;5.50;24.20
8152;DHT22;4117;53.622;9.958;2023-02-11T00:28:13;5.50;24.20
8152;DHT22;4117;53.622;9.958;2023-02-11T00:30:40;5.50;24.40
8152;DHT22;4117;53.622;9.958;2023-02-11T00:33:07;5.50;28.40
8152;DHT22;4117;53.622;9.958;2023-02-11T00:35:36;5.50;29.20
8152;DHT22;4117;53.622;9.958;2023-02-11T00:38:03;5.50;32.40
8152;DHT22;4117;53.622;9.958;2023-02-11T00:40:30;5.50;30.70
8152;DHT22;4117;53.622;9.958;2023-02-11T00:42:57;5.50;32.60
8152;DHT22;4117;53.622;9.958;2023-02-11T00:45:25;5.50;35.20
8152;DHT22;4117;53.622;9.958;2023-02-11T00:47:53;5.50;35.30
8152;DHT22;4117;53.622;9.958;2023-02-11T00:50:20;5.50;38.60
8152;DHT22;4117;53.622;9.958;2023-02-11T00:52:47;5.50;38.90
8152;DHT22;4117;53.622;9.958;2023-02-11T00:55:14;5.50;37.70
8152;DHT22;4117;53.622;9.958;2023-02-11T00:57:42;5.50;42.40
8152;DHT22;4117;53.622;9.958;2023-02-11T01:00:11;5.40;41.30
8152;DHT22;4117;53.622;9.958;2023-02-11T01:02:42;5.50;46.20
8152;DHT22;4117;53.622;9.958;2023-02-11T01:05:09;5.50;45.40
8152;DHT22;4117;53.622;9.958;2023-02-11T01:07:37;5.50;47.10
8152;DHT22;4117;53.622;9.958;2023-02-11T01:10:04;5.50;47.40
8152;DHT22;4117;53.622;9.958;2023-02-11T01:12:31;5.50;47.40
8152;DHT22;4117;53.622;9.958;2023-02-11T01:14:59;5.50;47.40
8152;DHT22;4117;53.622;9.958;2023-02-11T01:17:26;5.50;47.40
8152;DHT22;4117;53.622;9.958;2023-02-11T01:19:54;5.50;47.60
8152;DHT22;4117;53.622;9.958;2023-02-11T01:22:21;5.50;51.70
8152;DHT22;4117;53.622;9.958;2023-02-11T01:24:48;5.50;50.80
8152;DHT22;4117;53.622;9.958;2023-02-11T01:27:14;5.50;48.90
8152;DHT22;4117;53.622;9.958;2023-02-11T01:29:41;5.50;50.90
8152;DHT22;4117;53.622;9.958;2023-02-11T01:32:08;5.50;50.90
8152;DHT22;4117;53.622;9.958;2023-02-11T01:34:35;5.60;51.80
8152;DHT22;4117;53.622;9.958;2023-02-11T01:37:03;5.60;52.40
8152;DHT22;4117;53.622;9.958;2023-02-11T01:39:32;5.60;53.30
8152;DHT22;4117;53.622;9.958;2023-02-11T01:41:59;5.60;52.50
8152;DHT22;4117;53.622;9.958;2023-02-11T01:44:28;5.60;56.50
8152;DHT22;4117;53.622;9.958;2023-02-11T01:46:56;5.60;57.00
8152;DHT22;4117;53.622;9.958;2023-02-11T01:49:27;5.70;56.20
8152;DHT22;4117;53.622;9.958;2023-02-11T01:51:59;5.70;57.30
8152;DHT22;4117;53.622;9.958;2023-02-11T01:54:32;5.70;57.80
8152;DHT22;4117;53.622;9.958;2023-02-11T01:57:31;5.70;59.40
8152;DHT22;4117;53.622;9.958;2023-02-11T02:00:07;5.70;59.40
8152;DHT22;4117;53.622;9.958;2023-02-11T02:02:39;5.70;61.80
8152;DHT22;4117;53.622;9.958;2023-02-11T02:05:16;5.70;66.10
8152;DHT22;4117;53.622;9.958;2023-02-11T02:07:51;5.70;72.30
8152;DHT22;4117;53.622;9.958;2023-02-11T02:10:25;5.70;72.60
8152;DHT22;4117;53.622;9.958;2023-02-11T02:12:53;5.70;78.50
8152;DHT22;4117;53.622;9.958;2023-02-11T02:15:24;5.70;80.80
8152;DHT22;4117;53.622;9.958;2023-02-11T02:27:39;5.70;83.00
8152;DHT22;4117;53.622;9.958;2023-02-11T02:33:05;5.80;80.60
8152;DHT22;4117;53.622;9.958;2023-02-11T02:35:42;5.80;81.00
8152;DHT22;4117;53.622;9.958;2023-02-11T02:38:16;5.80;79.30
8152;DHT22;4117;53.622;9.958;2023-02-11T02:40:49;5.80;78.10
8152;DHT22;4117;53.622;9.958;2023-02-11T02:43:17;5.80;80.50
8152;DHT22;4117;53.622;9.958;2023-02-11T02:45:45;5.80;78.40
8152;DHT22;4117;53.622;9.958;2023-02-11T02:48:24;5.80;79.60
8152;DHT22;4117;53.622;9.958;2023-02-11T02:50:59;5.80;80.80
8152;DHT22;4117;53.622;9.958;2023-02-11T02:53:40;5.80;81.20
8152;DHT22;4117;53.622;9.958;2023-02-11T02:56:12;5.90;79.60
8152;DHT22;4117;53.622;9.958;2023-02-11T02:58:56;5.90;79.20
8152;DHT22;4117;53.622;9.958;2023-02-11T03:01:33;5.90;80.10
8152;DHT22;4117;53.622;9.958;2023-02-11T03:04:09;5.90;80.30
8152;DHT22;4117;53.622;9.958;2023-02-11T03:06:44;5.90;84.60
8152;DHT22;4117;53.622;9.958;2023-02-11T03:09:17;5.90;84.10
8152;DHT22;4117;53.622;9.958;2023-02-11T03:11:46;5.90;85.40
8152;DHT22;4117;53.622;9.958;2023-02-11T03:14:15;5.90;85.60
8152;DHT22;4117;53.622;9.958;2023-02-11T03:16:44;5.90;85.50
8152;DHT22;4117;53.622;9.958;2023-02-11T03:19:17;5.90;87.10
8152;DHT22;4117;53.622;9.958;2023-02-11T03:21:47;5.90;91.20
8152;DHT22;4117;53.622;9.958;2023-02-11T03:24:18;5.90;92.90
8152;DHT22;4117;53.622;9.958;2023-02-11T03:26:49;5.90;93.50
8152;DHT22;4117;53.622;9.958;2023-02-11T03:29:25;5.90;93.60
8152;DHT22;4117;53.622;9.958;2023-02-11T03:32:02;5.90;94.90
8152;DHT22;4117;53.622;9.958;2023-02-11T03:34:35;5.90;95.60
8152;DHT22;4117;53.622;9.958;2023-02-11T03:37:09;5.90;95.70
8152;DHT22;4117;53.622;9.958;2023-02-11T03:39:41;5.90;96.30
8152;DHT22;4117;53.622;9.958;2023-02-11T03:42:12;6.00;95.50
8152;DHT22;4117;53.622;9.958;2023-02-11T03:44:43;6.00;96.00
8152;DHT22;4117;53.622;9.958;2023-02-11T03:47:14;6.00;95.20
8152;DHT22;4117;53.622;9.958;2023-02-11T03:49:44;6.00;95.60
8152;DHT22;4117;53.622;9.958;2023-02-11T03:52:13;6.00;95.20
8152;DHT22;4117;53.622;9.958;2023-02-11T03:54:42;6.00;94.80
8152;DHT22;4117;53.622;9.958;2023-02-11T03:57:11;6.10;93.70
8152;DHT22;4117;53.622;9.958;2023-02-11T03:59:53;6.10;93.60
8152;DHT22;4117;53.622;9.958;2023-02-11T04:02:21;6.10;93.00
8152;DHT22;4117;53.622;9.958;2023-02-11T04:04:50;6.10;92.60
8152;DHT22;4117;53.622;9.958;2023-02-11T04:07:17;6.10;93.40
8152;DHT22;4117;53.622;9.958;2023-02-11T04:09:44;6.20;91.60
8152;DHT22;4117;53.622;9.958;2023-02-11T04:12:11;6.20;91.30
8152;DHT22;4117;53.622;9.958;2023-02-11T04:14:38;6.20;92.10
8152;DHT22;4117;53.622;9.958;2023-02-11T04:17:05;6.20;92.10
8152;DHT22;4117;53.622;9.958;2023-02-11T04:19:32;6.20;91.50
8152;DHT22;4117;53.622;9.958;2023-02-11T04:22:00;6.20;89.10
8152;DHT22;4117;53.622;9.958;2023-02-11T04:24:28;6.20;89.30
8152;DHT22;4117;53.622;9.958;2023-02-11T04:26:55;6.30;88.60
8152;DHT22;4117;53.622;9.958;2023-02-11T04:29:22;6.30;89.10
8152;DHT22;4117;53.622;9.958;2023-02-11T04:31:49;6.30;86.80
8152;DHT22;4117;53.622;9.958;2023-02-11T04:34:16;6.40;86.00
8152;DHT22;4117;53.622;9.958;2023-02-11T04:36:43;6.40;86.00
8152;DHT22;4117;53.622;9.958;2023-02-11T04:39:11;6.40;86.00
8152;DHT22;4117;53.622;9.958;2023-02-11T04:41:38;6.40;86.00
8152;DHT22;4117;53.622;9.958;2023-02-11T04:44:05;6.40;86.00
8152;DHT22;4117;53.622;9.958;2023-02-11T04:46:32;6.40;86.00
8152;DHT22;4117;53.622;9.958;2023-02-11T04:48:59;6.40;85.90
8152;DHT22;4117;53.622;9.958;2023-02-11T04:51:26;6.50;84.90
8152;DHT22;4117;53.622;9.958;2023-02-11T04:53:53;6.50;86.10
8152;DHT22;4117;53.622;9.958;2023-02-11T04:56:21;6.50;86.10
8152;DHT22;4117;53.622;9.958;2023-02-11T04:58:48;6.40;84.90
8152;DHT22;4117;53.622;9.958;2023-02-11T05:01:15;6.50;86.10
8152;DHT22;4117;53.622;9.958;2023-02-11T05:03:42;6.50;86.10
8152;DHT22;4117;53.622;9.958;2023-02-11T05:06:09;6.50;86.10
8152;DHT22;4117;53.622;9.958;2023-02-11T05:08:37;6.50;88.80
8152;DHT22;4117;53.622;9.958;2023-02-11T05:11:04;6.50;90.90
8152;DHT22;4117;53.622;9.958;2023-02-11T05:13:33;6.50;91.70
8152;DHT22;4117;53.622;9.958;2023-02-11T05:16:00;6.50;93.80
8152;DHT22;4117;53.622;9.958;2023-02-11T05:18:27;6.40;94.00
8152;DHT22;4117;53.622;9.958;2023-02-11T05:20:54;6.50;96.20
8152;DHT22;4117;53.622;9.958;2023-02-11T05:23:21;6.40;98.40
8152;DHT22;4117;53.622;9.958;2023-02-11T05:25:48;6.50;99.20
8152;DHT22;4117;53.622;9.958;2023-02-11T05:28:15;6.50;99.20
8152;DHT22;4117;53.622;9.958;2023-02-11T05:30:43;6.40;99.90
8152;DHT22;4117;53.622;9.958;2023-02-11T05:33:10;6.40;99.90
8152;DHT22;4117;53.622;9.958;2023-02-11T05:35:37;6.50;99.90
8152;DHT22;4117;53.622;9.958;2023-02-11T05:38:04;6.50;99.90
8152;DHT22;4117;53.622;9.958;2023-02-11T05:40:31;6.40;99.90
8152;DHT22;4117;53.622;9.958;2023-02-11T05:42:58;6.40;99.90
8152;DHT22;4117;53.622;9.958;2023-02-11T05:45:25;6.40;99.90
8152;DHT22;4117;53.622;9.958;2023-02-11T05:47:53;6.40;99.90
8152;DHT22;4117;53.622;9.958;2023-02-11T05:50:20;6.40;99.90
8152;DHT22;4117;53.622;9.958;2023-02-11T05:52:47;6.40;99.90
8152;DHT22;4117;53.622;9.958;2023-02-11T05:55:14;6.40;99.90
8152;DHT22;4117;53.622;9.958;2023-02-11T05:57:41;6.40;99.90
8152;DHT22;4117;53.622;9.958;2023-02-11T06:00:09;6.40;99.90
8152;DHT22;4117;53.622;9.958;2023-02-11T06:02:36;6.50;99.90
8152;DHT22;4117;53.622;9.958;2023-02-11T06:05:04;6.50;99.90
8152;DHT22;4117;53.622;9.958;2023-02-11T06:07:32;6.50;99.90
8152;DHT22;4117;53.622;9.958;2023-02-11T06:09:58;6.50;99.90
8152;DHT22;4117;53.622;9.958;2023-02-11T06:12:26;6.50;99.90
8152;DHT22;4117;53.622;9.958;2023-02-11T06:14:53;6.50;99.90
8152;DHT22;4117;53.622;9.958;2023-02-11T06:17:20;6.50;99.90
8152;DHT22;4117;53.622;9.958;2023-02-11T06:19:48;6.60;99.90
8152;DHT22;4117;53.622;9.958;2023-02-11T06:22:16;6.60;99.90
8152;DHT22;4117;53.622;9.958;2023-02-11T06:24:43;6.60;99.90
8152;DHT22;4117;53.622;9.958;2023-02-11T06:27:10;6.60;99.90
8152;DHT22;4117;53.622;9.958;2023-02-11T06:29:37;6.60;99.90
8152;DHT22;4117;53.622;9.958;2023-02-11T06:32:04;6.60;99.90
8152;DHT22;4117;53.622;9.958;2023-02-11T06:34:30;6.60;99.90
8152;DHT22;4117;53.622;9.958;2023-02-11T06:36:57;6.70;99.90
8152;DHT22;4117;53.622;9.958;2023-02-11T06:39:26;6.70;99.90
8152;DHT22;4117;53.622;9.958;2023-02-11T06:41:53;6.70;99.90
8152;DHT22;4117;53.622;9.958;2023-02-11T06:44:19;6.70;99.90
8152;DHT22;4117;53.622;9.958;2023-02-11T06:46:46;6.70;99.90
8152;DHT22;4117;53.622;9.958;2023-02-11T06:49:15;6.70;99.90
8152;DHT22;4117;53.622;9.958;2023-02-11T06:51:42;6.70;99.90
8152;DHT22;4117;53.622;9.958;2023-02-11T06:54:11;6.70;99.90
8152;DHT22;4117;53.622;9.958;2023-02-11T06:56:40;6.70;99.90
8152;DHT22;4117;53.622;9.958;2023-02-11T06:59:14;6.70;99.90
8152;DHT22;4117;53.622;9.958;2023-02-11T07:01:42;6.70;99.90
8152;DHT22;4117;53.622;9.958;2023-02-11T07:04:09;6.70;99.90
8152;DHT22;4117;53.622;9.958;2023-02-11T07:06:36;6.70;99.90
8152;DHT22;4117;53.622;9.958;2023-02-11T07:09:04;6.70;99.90
8152;DHT22;4117;53.622;9.958;2023-02-11T07:11:31;6.70;99.90
8152;DHT22;4117;53.622;9.958;2023-02-11T07:14:02;6.80;99.90
8152;DHT22;4117;53.622;9.958;2023-02-11T07:16:30;6.80;99.90
8152;DHT22;4117;53.622;9.958;2023-02-11T07:19:04;6.70;99.90
8152;DHT22;4117;53.622;9.958;2023-02-11T07:21:31;6.70;99.90
8152;DHT22;4117;53.622;9.958;2023-02-11T07:23:57;6.80;99.90
8152;DHT22;4117;53.622;9.958;2023-02-11T07:26:24;6.80;99.90
8152;DHT22;4117;53.622;9.958;2023-02-11T07:28:52;6.80;99.90
8152;DHT22;4117;53.622;9.958;2023-02-11T07:31:22;6.80;99.90
8152;DHT22;4117;53.622;9.958;2023-02-11T07:33:51;6.80;99.90
8152;DHT22;4117;53.622;9.958;2023-02-11T07:36:18;6.80;99.90
8152;DHT22;4117;53.622;9.958;2023-02-11T07:38:46;6.80;99.90
8152;DHT22;4117;53.622;9.958;2023-02-11T07:41:18;6.80;99.90
8152;DHT22;4117;53.622;9.958;2023-02-11T07:43:45;6.80;99.90
8152;DHT22;4117;53.622;9.958;2023-02-11T07:46:14;6.80;99.90
8152;DHT22;4117;53.622;9.958;2023-02-11T07:48:43;6.80;99.90
8152;DHT22;4117;53.622;9.958;2023-02-11T07:51:12;6.80;99.90
8152;DHT22;4117;53.622;9.958;2023-02-11T07:53:39;6.80;99.90
8152;DHT22;4117;53.622;9.958;2023-02-11T07:56:07;6.80;99.90
8152;DHT22;4117;53.622;9.958;2023-02-11T07:58:35;6.80;99.90
8152;DHT22;4117;53.622;9.958;2023-02-11T08:01:03;6.80;99.90
8152;DHT22;4117;53.622;9.958;2023-02-11T08:03:30;6.80;99.90
8152;DHT22;4117;53.622;9.958;2023-02-11T08:06:02;6.80;99.90
8152;DHT22;4117;53.622;9.958;2023-02-11T08:08:29;6.90;99.90
8152;DHT22;4117;53.622;9.958;2023-02-11T08:10:57;6.80;99.90
8152;DHT22;4117;53.622;9.958;2023-02-11T08:13:24;6.90;99.90
8152;DHT22;4117;53.622;9.958;2023-02-11T08:15:52;6.90;99.90
8152;DHT22;4117;53.622;9.958;2023-02-11T08:18:22;6.90;99.90
8152;DHT22;4117;53.622;9.958;2023-02-11T08:20:49;6.90;99.90
8152;DHT22;4117;53.622;9.958;2023-02-11T08:23:20;6.90;99.90
8152;DHT22;4117;53.622;9.958;2023-02-11T08:25:47;7.00;99.90
8152;DHT22;4117;53.622;9.958;2023-02-11T08:28:18;6.90;99.90
8152;DHT22;4117;53.622;9.958;2023-02-11T08:30:50;6.90;99.90
8152;DHT22;4117;53.622;9.958;2023-02-11T08:33:17;7.00;99.90
8152;DHT22;4117;53.622;9.958;2023-02-11T08:35:44;7.00;99.90
8152;DHT22;4117;53.622;9.958;2023-02-11T08:38:13;7.00;99.90
8152;DHT22;4117;53.622;9.958;2023-02-11T08:40:43;7.00;99.90
8152;DHT22;4117;53.622;9.958;2023-02-11T08:43:16;7.00;99.90
8152;DHT22;4117;53.622;9.958;2023-02-11T08:45:44;7.00;99.90
8152;DHT22;4117;53.622;9.958;2023-02-11T08:48:11;7.00;99.90
8152;DHT22;4117;53.622;9.958;2023-02-11T08:50:38;7.00;99.90
8152;DHT22;4117;53.622;9.958;2023-02-11T08:53:05;7.00;99.90
8152;DHT22;4117;53.622;9.958;2023-02-11T08:55:32;7.00;99.90
8152;DHT22;4117;53.622;9.958;2023-02-11T08:58:01;7.00;99.90
8152;DHT22;4117;53.622;9.958;2023-02-11T09:00:28;7.00;99.90
8152;DHT22;4117;53.622;9.958;2023-02-11T09:02:54;7.10;99.90
8152;DHT22;4117;53.622;9.958;2023-02-11T09:05:21;7.10;99.90
8152;DHT22;4117;53.622;9.958;2023-02-11T09:07:51;7.00;99.90
8152;DHT22;4117;53.622;9.958;2023-02-11T09:10:18;7.10;99.90
8152;DHT22;4117;53.622;9.958;2023-02-11T09:12:45;7.10;99.90
8152;DHT22;4117;53.622;9.958;2023-02-11T09:15:13;7.10;99.90
8152;DHT22;4117;53.622;9.958;2023-02-11T09:17:40;7.10;99.90
8152;DHT22;4117;53.622;9.958;2023-02-11T09:20:07;7.10;99.90
8152;DHT22;4117;53.622;9.958;2023-02-11T09:22:34;7.10;99.90
8152;DHT22;4117;53.622;9.958;2023-02-11T09:25:01;7.10;99.90
8152;DHT22;4117;53.622;9.958;2023-02-11T09:27:28;7.10;99.90
8152;DHT22;4117;53.622;9.958;2023-02-11T09:29:55;7.20;99.90
8152;DHT22;4117;53.622;9.958;2023-02-11T09:32:24;7.20;99.90
8152;DHT22;4117;53.622;9.958;2023-02-11T09:34:51;7.20;99.90
8152;DHT22;4117;53.622;9.958;2023-02-11T09:37:18;7.20;99.90
8152;DHT22;4117;53.622;9.958;2023-02-11T09:39:45;7.20;99.90
8152;DHT22;4117;53.622;9.958;2023-02-11T09:42:42;7.20;99.90
8152;DHT22;4117;53.622;9.958;2023-02-11T09:45:14;7.20;99.90
8152;DHT22;4117;53.622;9.958;2023-02-11T09:47:54;7.30;99.90
8152;DHT22;4117;53.622;9.958;2023-02-11T09:50:24;7.30;99.90
8152;DHT22;4117;53.622;9.958;2023-02-11T09:52:56;7.30;99.90
8152;DHT22;4117;53.622;9.958;2023-02-11T09:55:26;7.30;99.90
8152;DHT22;4117;53.622;9.958;2023-02-11T09:57:54;7.30;99.90
8152;DHT22;4117;53.622;9.958;2023-02-11T10:00:25;7.30;99.90
8152;DHT22;4117;53.622;9.958;2023-02-11T10:06:14;7.40;99.90
8152;DHT22;4117;53.622;9.958;2023-02-11T10:08:52;7.40;99.90
8152;DHT22;4117;53.622;9.958;2023-02-11T10:11:26;7.40;99.90
8152;DHT22;4117;53.622;9.958;2023-02-11T10:14:02;7.40;99.90
8152;DHT22;4117;53.622;9.958;2023-02-11T10:16:44;7.50;99.90
8152;DHT22;4117;53.622;9.958;2023-02-11T10:19:27;7.50;99.90
8152;DHT22;4117;53.622;9.958;2023-02-11T10:22:05;7.50;99.90
8152;DHT22;4117;53.622;9.958;2023-02-11T10:24:35;7.50;99.90
8152;DHT22;4117;53.622;9.958;2023-02-11T10:27:07;7.50;99.90
8152;DHT22;4117;53.622;9.958;2023-02-11T10:29:43;7.50;99.90
8152;DHT22;4117;53.622;9.958;2023-02-11T10:32:19;7.50;99.90
8152;DHT22;4117;53.622;9.958;2023-02-11T10:34:50;7.50;99.90
8152;DHT22;4117;53.622;9.958;2023-02-11T10:37:19;7.50;99.90
8152;DHT22;4117;53.622;9.958;2023-02-11T10:39:46;7.50;99.90
8152;DHT22;4117;53.622;9.958;2023-02-11T10:42:13;7.60;99.90
8152;DHT22;4117;53.622;9.958;2023-02-11T10:44:54;7.60;99.90
8152;DHT22;4117;53.622;9.958;2023-02-11T10:47:24;7.60;99.90
8152;DHT22;4117;53.622;9.958;2023-02-11T10:49:51;7.60;99.90
8152;DHT22;4117;53.622;9.958;2023-02-11T10:52:23;7.60;99.90
8152;DHT22;4117;53.622;9.958;2023-02-11T10:54:58;7.60;99.90
8152;DHT22;4117;53.622;9.958;2023-02-11T10:57:33;7.60;99.90
8152;DHT22;4117;53.622;9.958;2023-02-11T11:00:18;7.60;99.90
8152;DHT22;4117;53.622;9.958;2023-02-11T11:02:53;7.70;99.90
8152;DHT22;4117;53.622;9.958;2023-02-11T11:05:27;7.70;99.90
8152;DHT22;4117;53.622;9.958;2023-02-11T11:07:59;7.70;99.90
8152;DHT22;4117;53.622;9.958;2023-02-11T11:10:30;7.70;99.90
8152;DHT22;4117;53.622;9.958;2023-02-11T11:13:00;7.70;99.90
8152;DHT22;4117;53.622;9.958;2023-02-11T11:15:28;7.70;99.90
8152;DHT22;4117;53.622;9.958;2023-02-11T11:18:11;7.70;99.90
8152;DHT22;4117;53.622;9.958;2023-02-11T11:20:43;7.70;99.90
8152;DHT22;4117;53.622;9.958;2023-02-11T11:23:21;7.70;99.90
8152;DHT22;4117;53.622;9.958;2023-02-11T11:26:00;7.70;99.90
8152;DHT22;4117;53.622;9.958;2023-02-11T11:28:34;7.70;99.90
8152;DHT22;4117;53.622;9.958;2023-02-11T11:31:04;7.70;99.90
8152;DHT22;4117;53.622;9.958;2023-02-11T11:33:33;7.70;99.90
8152;DHT22;4117;53.622;9.958;2023-02-11T11:36:05;7.70;99.90
8152;DHT22;4117;53.622;9.958;2023-02-11T11:38:36;7.70;99.90
8152;DHT22;4117;53.622;9.958;2023-02-11T11:41:19;7.80;99.90
8152;DHT22;4117;53.622;9.958;2023-02-11T11:44:02;7.80;99.90
8152;DHT22;4117;53.622;9.958;2023-02-11T11:46:32;7.80;99.90
8152;DHT22;4117;53.622;9.958;2023-02-11T11:49:11;7.80;99.90
8152;DHT22;4117;53.622;9.958;2023-02-11T11:51:41;7.90;99.90
8152;DHT22;4117;53.622;9.958;2023-02-11T11:54:14;7.90;99.90
8152;DHT22;4117;53.622;9.958;2023-02-11T11:56:50;7.90;99.90
8152;DHT22;4117;53.622;9.958;2023-02-11T11:59:19;7.90;99.90
8152;DHT22;4117;53.622;9.958;2023-02-11T12:01:56;7.90;99.90
8152;DHT22;4117;53.622;9.958;2023-02-11T12:04:42;7.90;99.90
8152;DHT22;4117;53.622;9.958;2023-02-11T12:07:26;7.90;99.90
8152;DHT22;4117;53.622;9.958;2023-02-11T12:10:16;7.90;99.90
8152;DHT22;4117;53.622;9.958;2023-02-11T12:12:49;7.90;99.90
8152;DHT22;4117;53.622;9.958;2023-02-11T12:15:28;7.90;99.90
8152;DHT22;4117;53.622;9.958;2023-02-11T12:18:10;7.90;99.90
8152;DHT22;4117;53.622;9.958;2023-02-11T12:20:53;7.90;99.90
8152;DHT22;4117;53.622;9.958;2023-02-11T12:23:37;7.90;99.90
8152;DHT22;4117;53.622;9.958;2023-02-11T12:26:12;7.90;99.90
8152;DHT22;4117;53.622;9.958;2023-02-11T12:28:50;7.90;99.90
8152;DHT22;4117;53.622;9.958;2023-02-11T12:31:28;7.90;99.90
8152;DHT22;4117;53.622;9.958;2023-02-11T12:34:29;7.90;99.90
8152;DHT22;4117;53.622;9.958;2023-02-11T12:37:05;7.90;99.90
8152;DHT22;4117;53.622;9.958;2023-02-11T12:39:41;7.90;99.90
8152;DHT22;4117;53.622;9.958;2023-02-11T12:42:25;7.90;99.90
8152;DHT22;4117;53.622;9.958;2023-02-11T12:45:31;7.90;99.90
8152;DHT22;4117;53.622;9.958;2023-02-11T12:48:21;7.90;99.90
8152;DHT22;4117;53.622;9.958;2023-02-11T12:50:56;7.90;99.90
8152;DHT22;4117;53.622;9.958;2023-02-11T12:54:03;7.90;99.90
8152;DHT22;4117;53.622;9.958;2023-02-11T12:56:36;8.00;99.90
8152;DHT22;4117;53.622;9.958;2023-02-11T12:59:12;7.90;99.90
8152;DHT22;4117;53.622;9.958;2023-02-11T13:01:43;7.90;99.90
8152;DHT22;4117;53.622;9.958;2023-02-11T13:04:15;7.90;99.90
8152;DHT22;4117;53.622;9.958;2023-02-11T13:06:48;8.00;99.90
8152;DHT22;4117;53.622;9.958;2023-02-11T13:09:18;8.00;99.90
8152;DHT22;4117;53.622;9.958;2023-02-11T13:11:50;8.00;99.90
8152;DHT22;4117;53.622;9.958;2023-02-11T13:14:25;8.00;99.90
8152;DHT22;4117;53.622;9.958;2023-02-11T13:16:54;8.00;99.90
8152;DHT22;4117;53.622;9.958;2023-02-11T13:19:27;8.00;99.90
8152;DHT22;4117;53.622;9.958;2023-02-11T13:22:04;8.00;99.90
8152;DHT22;4117;53.622;9.958;2023-02-11T13:24:39;8.00;99.90
8152;DHT22;4117;53.622;9.958;2023-02-11T13:27:21;8.00;99.90
8152;DHT22;4117;53.622;9.958;2023-02-11T13:30:19;8.00;99.90
8152;DHT22;4117;53.622;9.958;2023-02-11T13:33:16;8.00;99.90
8152;DHT22;4117;53.622;9.958;2023-02-11T13:35:46;8.00;99.90
8152;DHT22;4117;53.622;9.958;2023-02-11T13:38:19;8.00;99.90
8152;DHT22;4117;53.622;9.958;2023-02-11T13:41:00;8.00;99.90
8152;DHT22;4117;53.622;9.958;2023-02-11T13:43:28;8.00;99.90
8152;DHT22;4117;53.622;9.958;2023-02-11T13:46:02;8.00;99.90
8152;DHT22;4117;53.622;9.958;2023-02-11T13:48:31;8.00;99.90
8152;DHT22;4117;53.622;9.958;2023-02-11T13:51:00;8.00;99.90
8152;DHT22;4117;53.622;9.958;2023-02-11T13:53:28;8.10;99.90
8152;DHT22;4117;53.622;9.958;2023-02-11T13:56:06;8.10;99.90
8152;DHT22;4117;53.622;9.958;2023-02-11T13:58:36;8.10;99.90
8152;DHT22;4117;53.622;9.958;2023-02-11T14:01:06;8.10;99.90
8152;DHT22;4117;53.622;9.958;2023-02-11T14:03:36;8.10;99.90
8152;DHT22;4117;53.622;9.958;2023-02-11T14:06:26;8.10;99.90
8152;DHT22;4117;53.622;9.958;2023-02-11T14:09:39;8.10;99.90
8152;DHT22;4117;53.622;9.958;2023-02-11T14:12:22;8.10;99.90
8152;DHT22;4117;53.622;9.958;2023-02-11T14:17:44;8.10;99.90
8152;DHT22;4117;53.622;9.958;2023-02-11T14:20:33;8.10;99.90
8152;DHT22;4117;53.622;9.958;2023-02-11T14:23:01;8.10;99.90
8152;DHT22;4117;53.622;9.958;2023-02-11T14:25:29;8.10;99.90
8152;DHT22;4117;53.622;9.958;2023-02-11T14:28:00;8.10;99.90
8152;DHT22;4117;53.622;9.958;2023-02-11T14:30:41;8.10;99.90
8152;DHT22;4117;53.622;9.958;2023-02-11T14:36:43;8.10;99.90
8152;DHT22;4117;53.622;9.958;2023-02-11T14:39:33;8.10;99.90
8152;DHT22;4117;53.622;9.958;2023-02-11T14:42:06;8.00;99.90
8152;DHT22;4117;53.622;9.958;2023-02-11T14:44:37;8.00;99.90
8152;DHT22;4117;53.622;9.958;2023-02-11T14:47:05;8.00;99.90
8152;DHT22;4117;53.622;9.958;2023-02-11T14:49:34;8.00;99.90
8152;DHT22;4117;53.622;9.958;2023-02-11T14:52:13;8.00;99.90
8152;DHT22;4117;53.622;9.958;2023-02-11T14:54:43;7.90;99.90
8152;DHT22;4117;53.622;9.958;2023-02-11T14:57:13;7.90;99.90
8152;DHT22;4117;53.622;9.958;2023-02-11T14:59:52;7.90;99.90
8152;DHT22;4117;53.622;9.958;2023-02-11T15:02:21;7.90;99.90
8152;DHT22;4117;53.622;9.958;2023-02-11T15:04:48;7.80;99.90
8152;DHT22;4117;53.622;9.958;2023-02-11T15:07:17;7.80;99.90
8152;DHT22;4117;53.622;9.958;2023-02-11T15:09:45;7.80;99.90
8152;DHT22;4117;53.622;9.958;2023-02-11T15:12:17;7.70;99.90
8152;DHT22;4117;53.622;9.958;2023-02-11T15:14:50;7.70;99.90
8152;DHT22;4117;53.622;9.958;2023-02-11T15:17:21;7.70;99.90
8152;DHT22;4117;53.622;9.958;2023-02-11T15:19:51;7.70;99.90
8152;DHT22;4117;53.622;9.958;2023-02-11T15:22:22;7.70;99.90
8152;DHT22;4117;53.622;9.958;2023-02-11T15:24:57;7.70;99.90
8152;DHT22;4117;53.622;9.958;2023-02-11T15:27:24;7.60;99.90
8152;DHT22;4117;53.622;9.958;2023-02-11T15:29:51;7.60;99.90
8152;DHT22;4117;53.622;9.958;2023-02-11T15:32:20;7.60;99.90
8152;DHT22;4117;53.622;9.958;2023-02-11T15:34:49;7.50;99.90
8152;DHT22;4117;53.622;9.958;2023-02-11T15:37:20;7.50;99.90
8152;DHT22;4117;53.622;9.958;2023-02-11T15:39:48;7.60;99.90
8152;DHT22;4117;53.622;9.958;2023-02-11T15:42:21;7.50;99.90
8152;DHT22;4117;53.622;9.958;2023-02-11T15:44:49;7.50;99.90
8152;DHT22;4117;53.622;9.958;2023-02-11T15:47:18;7.50;99.90
8152;DHT22;4117;53.622;9.958;2023-02-11T15:49:46;7.50;99.90
8152;DHT22;4117;53.622;9.958;2023-02-11T15:52:22;7.50;99.90
8152;DHT22;4117;53.622;9.958;2023-02-11T15:54:51;7.40;99.90
8152;DHT22;4117;53.622;9.958;2023-02-11T15:57:20;7.40;99.90
8152;DHT22;4117;53.622;9.958;2023-02-11T15:59:50;7.40;99.90
8152;DHT22;4117;53.622;9.958;2023-02-11T16:02:28;7.30;99.90
8152;DHT22;4117;53.622;9.958;2023-02-11T16:04:58;7.30;99.90
8152;DHT22;4117;53.622;9.958;2023-02-11T16:07:42;7.30;99.90
8152;DHT22;4117;53.622;9.958;2023-02-11T16:10:21;7.30;99.90
8152;DHT22;4117;53.622;9.958;2023-02-11T16:13:14;7.30;99.90
8152;DHT22;4117;53.622;9.958;2023-02-11T16:15:45;7.30;99.90
8152;DHT22;4117;53.622;9.958;2023-02-11T16:18:24;7.30;99.90
8152;DHT22;4117;53.622;9.958;2023-02-11T16:20:53;7.30;99.90
8152;DHT22;4117;53.622;9.958;2023-02-11T16:23:24;7.30;99.90
8152;DHT22;4117;53.622;9.958;2023-02-11T16:25:57;7.30;99.90
8152;DHT22;4117;53.622;9.958;2023-02-11T16:28:25;7.30;99.90
8152;DHT22;4117;53.622;9.958;2023-02-11T16:30:54;7.30;99.90
8152;DHT22;4117;53.622;9.958;2023-02-11T16:33:21;7.30;99.90
8152;DHT22;4117;53.622;9.958;2023-02-11T16:35:50;7.30;99.90
8152;DHT22;4117;53.622;9.958;2023-02-11T16:38:17;7.30;99.90
8152;DHT22;4117;53.622;9.958;2023-02-11T16:40:45;7.30;99.90
8152;DHT22;4117;53.622;9.958;2023-02-11T16:43:17;7.30;99.90
8152;DHT22;4117;53.622;9.958;2023-02-11T16:45:44;7.30;99.90
8152;DHT22;4117;53.622;9.958;2023-02-11T16:48:15;7.30;99.90
8152;DHT22;4117;53.622;9.958;2023-02-11T16:50:44;7.30;99.90
8152;DHT22;4117;53.622;9.958;2023-02-11T16:53:13;7.30;99.90
8152;DHT22;4117;53.622;9.958;2023-02-11T16:55:41;7.30;99.90
8152;DHT22;4117;53.622;9.958;2023-02-11T16:58:10;7.30;99.90
8152;DHT22;4117;53.622;9.958;2023-02-11T17:00:36;7.30;99.90
8152;DHT22;4117;53.622;9.958;2023-02-11T17:03:06;7.20;99.90
8152;DHT22;4117;53.622;9.958;2023-02-11T17:05:33;7.30;99.90